Flugwetter

METAR EDDW
2024/07/15 05:50 EDDW 150550Z AUTO 20007KT CAVOK 16/11 Q1013 NOSIG
TAF EDDW
2024/07/15 06:27 TAF TAF EDDW 150500Z 1506/1606 VRB03KT 9999 FEW040 BECMG 1506/1508 24006KT BECMG 1514/1517 07007KT TEMPO 1600/1604 RA PROB30 TEMPO 1602/1603 4500 TSRA SCT012 BKN020CB BECMG 1604/1606 22006KT PROB30 TEMPO 1604/1606 BKN010
METAR EDDH
2024/07/15 05:50 EDDH 150550Z AUTO 22009KT CAVOK 17/12 Q1012 NOSIG
TAF EDDH
2024/07/15 06:27 TAF TAF EDDH 150500Z 1506/1612 16003KT 9999 FEW040 BECMG 1506/1508 24008KT BECMG 1516/1518 34006KT BECMG 1518/1520 05005KT TEMPO 1603/1606 RA PROB30 TEMPO 1604/1606 4500 TSRA BKN045CB BECMG 1606/1608 22008KT PROB30 TEMPO 1606/1608 BKN010
METAR VRMM
2024/07/15 05:00 VRMM 150500Z 25012KT 9999 FEW018 BKN270 31/27 Q1008 NOSIG
TAF VRMM
2024/07/15 06:12 TAF VRMM 150500Z 1506/1612 25012KT 9999 FEW018TCU TEMPO 1509/1515 5000 TSRA FEW017CB

Quelle:

Bereitgestellt von den Servern der NOAA tgftp.nws.noaa.gov
Alle Angaben ohne Gewähr